Time;durP1;ratioP1;P1;durP2;ratioP2;P2;SDS_P1;SDS_P2;PMS_P1;PMS_P2;Temp;Humidity;BMP_temperature;BMP_pressure;BME280_temperature;BME280_humidity;BME280_pressure;Samples;Min_cycle;Max_cycle;Signal;HPM_P1;HPM_P2
2021/12/28 00:00:15;;;;;;;152.57;45.05;;;9.10;99.90;;;;;;5117348;27;20189;-76
2021/12/28 00:02:45;;;;;;;140.77;45.55;;;9.10;99.90;;;;;;5126389;27;20173;-76
2021/12/28 00:05:11;;;;;;;139.50;44.33;;;9.10;99.90;;;;;;5118152;27;20177;-75
2021/12/28 00:07:37;;;;;;;128.05;43.25;;;9.10;99.90;;;;;;5118904;27;20180;-74
2021/12/28 00:10:05;;;;;;;133.35;43.40;;;9.10;99.90;;;;;;5126121;27;20203;-77
2021/12/28 00:12:33;;;;;;;118.13;41.00;;;9.10;99.90;;;;;;5119081;27;20181;-75
2021/12/28 00:15:18;;;;;;;143.85;41.30;;;9.10;99.90;;;;;;5128069;27;20188;-76
2021/12/28 00:17:59;;;;;;;128.15;40.78;;;9.10;99.90;;;;;;5118308;27;20181;-77
2021/12/28 00:20:33;;;;;;;122.53;39.83;;;9.10;99.90;;;;;;5095193;28;20192;-76
2021/12/28 00:23:00;;;;;;;121.20;39.47;;;9.10;99.90;;;;;;5113867;27;20197;-75
2021/12/28 00:25:27;;;;;;;117.50;39.80;;;9.10;99.90;;;;;;5115619;27;20185;-75
2021/12/28 00:27:53;;;;;;;111.50;37.17;;;9.10;99.90;;;;;;5120569;27;20188;-76
2021/12/28 00:30:20;;;;;;;103.03;34.13;;;9.10;99.90;;;;;;5114160;27;20205;-75
2021/12/28 00:32:52;;;;;;;107.82;35.83;;;9.20;99.90;;;;;;5112611;27;20193;-75
2021/12/28 00:35:18;;;;;;;92.43;33.50;;;9.10;99.90;;;;;;5116682;27;20566;-77
2021/12/28 00:37:43;;;;;;;94.75;32.80;;;9.20;99.90;;;;;;5110716;27;20185;-75
2021/12/28 00:40:09;;;;;;;88.78;33.35;;;9.20;99.90;;;;;;5119177;27;20208;-75
2021/12/28 00:42:35;;;;;;;84.43;33.03;;;9.20;99.90;;;;;;5112321;27;20910;-77
2021/12/28 00:45:01;;;;;;;89.88;32.55;;;9.10;99.90;;;;;;5112070;27;20177;-75
2021/12/28 00:47:27;;;;;;;88.05;31.80;;;9.10;99.90;;;;;;5110087;28;20189;-75
2021/12/28 00:49:52;;;;;;;87.22;32.50;;;9.10;99.90;;;;;;5119906;27;20180;-75
2021/12/28 00:52:18;;;;;;;79.57;31.23;;;9.10;99.90;;;;;;5113442;27;20278;-74
2021/12/28 00:54:43;;;;;;;74.95;28.63;;;9.10;99.90;;;;;;5124360;27;20184;-74
2021/12/28 00:57:09;;;;;;;63.00;29.45;;;9.10;99.90;;;;;;5111557;27;20174;-75
2021/12/28 00:59:35;;;;;;;88.97;28.65;;;9.10;99.90;;;;;;5093280;28;20189;-76
2021/12/28 01:02:00;;;;;;;76.03;28.55;;;9.10;99.90;;;;;;5110359;28;20185;-77
2021/12/28 01:04:27;;;;;;;75.88;27.85;;;9.10;99.90;;;;;;5111251;27;20224;-75
2021/12/28 01:06:52;;;;;;;69.25;26.48;;;9.10;99.90;;;;;;5109778;28;20665;-75
2021/12/28 01:09:18;;;;;;;66.88;29.70;;;9.10;99.90;;;;;;5110620;27;20407;-75
2021/12/28 01:11:44;;;;;;;61.47;28.83;;;9.50;99.90;;;;;;5105025;28;20420;-76
2021/12/28 01:14:09;;;;;;;62.17;26.05;;;9.80;99.90;;;;;;5115388;27;20387;-77
2021/12/28 01:16:35;;;;;;;55.60;25.17;;;9.90;99.90;;;;;;5113405;27;20547;-77
2021/12/28 01:19:01;;;;;;;53.70;23.88;;;10.10;99.90;;;;;;5113299;27;20468;-77
2021/12/28 01:21:27;;;;;;;56.03;23.43;;;10.20;99.90;;;;;;5124187;27;20411;-77
2021/12/28 01:23:52;;;;;;;52.33;21.00;;;10.20;99.90;;;;;;5118085;27;20648;-77
2021/12/28 01:26:18;;;;;;;52.55;19.00;;;9.90;99.90;;;;;;5112108;27;20622;-77
2021/12/28 01:28:44;;;;;;;48.47;18.50;;;9.60;99.90;;;;;;5117148;27;20193;-75
2021/12/28 01:31:10;;;;;;;42.72;17.63;;;9.50;99.90;;;;;;5108266;27;20699;-76
2021/12/28 01:33:35;;;;;;;48.85;17.38;;;9.40;99.90;;;;;;5109431;28;20234;-75
2021/12/28 01:36:01;;;;;;;55.80;16.95;;;9.30;99.90;;;;;;5114800;27;20182;-76
2021/12/28 01:38:27;;;;;;;53.70;20.27;;;9.20;99.90;;;;;;5110815;27;20499;-76
2021/12/28 01:40:53;;;;;;;51.10;19.38;;;9.60;99.90;;;;;;5107168;28;20481;-76
2021/12/28 01:43:23;;;;;;;51.83;19.58;;;9.90;99.90;;;;;;5106522;28;20410;-75
2021/12/28 01:46:01;;;;;;;54.53;18.77;;;10.00;99.90;;;;;;5105046;28;20419;-77
2021/12/28 01:48:35;;;;;;;53.40;18.08;;;10.10;99.90;;;;;;5106625;28;20438;-76
2021/12/28 01:51:09;;;;;;;53.75;16.33;;;10.10;99.90;;;;;;5108244;28;20201;-76
2021/12/28 01:53:36;;;;;;;48.05;14.80;;;9.80;99.90;;;;;;5110506;28;20644;-76
2021/12/28 01:56:08;;;;;;;50.25;14.90;;;9.50;99.90;;;;;;5102113;28;20173;-75
2021/12/28 01:58:34;;;;;;;47.10;14.90;;;9.40;99.90;;;;;;5110474;27;20178;-74
2021/12/28 02:01:00;;;;;;;42.88;14.85;;;9.20;99.90;;;;;;5116576;27;20193;-75
2021/12/28 02:03:28;;;;;;;48.78;15.30;;;9.10;99.90;;;;;;5110156;28;20200;-75
2021/12/28 02:05:55;;;;;;;41.53;14.25;;;9.10;99.90;;;;;;5108617;27;20193;-75
2021/12/28 02:08:21;;;;;;;52.03;14.18;;;9.10;99.90;;;;;;5119615;27;20182;-75
2021/12/28 02:10:50;;;;;;;54.72;15.23;;;9.00;99.90;;;;;;5110110;27;20266;-74
2021/12/28 02:13:16;;;;;;;39.95;14.25;;;9.00;99.90;;;;;;5120393;27;20191;-74
2021/12/28 02:15:43;;;;;;;49.35;13.65;;;9.00;99.90;;;;;;5108512;27;20177;-75
2021/12/28 02:18:11;;;;;;;51.00;13.10;;;9.00;99.90;;;;;;5109472;28;20189;-75
2021/12/28 02:20:38;;;;;;;44.53;13.25;;;9.00;99.90;;;;;;5114024;27;20645;-75
2021/12/28 02:23:04;;;;;;;52.25;13.68;;;8.90;99.90;;;;;;5125556;27;20645;-77
2021/12/28 02:25:31;;;;;;;45.85;14.18;;;8.90;99.90;;;;;;5114012;27;20650;-77
2021/12/28 02:27:58;;;;;;;60.47;14.20;;;8.90;99.90;;;;;;5117239;27;20189;-78
2021/12/28 02:30:24;;;;;;;40.50;13.02;;;8.90;99.90;;;;;;5116416;27;20220;-76
2021/12/28 02:32:50;;;;;;;50.47;13.50;;;8.90;99.90;;;;;;5113313;27;20180;-77
2021/12/28 02:35:22;;;;;;;47.83;12.77;;;8.90;99.90;;;;;;5115110;27;20707;-77
2021/12/28 02:37:49;;;;;;;39.28;12.57;;;8.90;99.90;;;;;;5115183;27;20190;-76
2021/12/28 02:40:18;;;;;;;69.05;12.77;;;8.80;99.90;;;;;;5117242;27;20196;-75
2021/12/28 02:42:44;;;;;;;60.75;12.27;;;8.80;99.90;;;;;;5108208;28;20724;-77
2021/12/28 02:45:15;;;;;;;48.17;12.77;;;8.80;99.90;;;;;;5112463;27;20193;-76
2021/12/28 02:47:44;;;;;;;48.25;11.23;;;8.80;99.90;;;;;;5111822;27;20204;-76
2021/12/28 02:50:15;;;;;;;42.95;11.32;;;8.80;99.90;;;;;;5113908;28;20185;-79
2021/12/28 02:52:41;;;;;;;58.88;11.80;;;8.80;99.90;;;;;;5108530;28;20654;-77
2021/12/28 02:55:13;;;;;;;53.00;12.00;;;8.80;99.90;;;;;;5121394;27;20216;-77
2021/12/28 02:57:46;;;;;;;38.65;11.80;;;8.80;99.90;;;;;;5117229;28;20188;-77
2021/12/28 03:00:14;;;;;;;53.38;11.88;;;8.80;99.90;;;;;;5115572;27;20196;-76
2021/12/28 03:02:40;;;;;;;49.97;11.60;;;8.80;99.90;;;;;;5113286;28;20653;-75
2021/12/28 03:05:05;;;;;;;42.13;10.55;;;8.80;99.90;;;;;;5116559;28;20185;-76
2021/12/28 03:07:31;;;;;;;50.05;10.77;;;8.80;99.90;;;;;;5118962;28;20185;-78
2021/12/28 03:09:57;;;;;;;57.33;12.38;;;8.80;99.90;;;;;;5114350;27;20640;-76
2021/12/28 03:12:23;;;;;;;38.90;10.57;;;8.90;99.90;;;;;;5118288;28;20177;-77
2021/12/28 03:14:49;;;;;;;42.25;10.95;;;8.90;99.90;;;;;;5116429;28;20179;-77
2021/12/28 03:17:15;;;;;;;45.25;10.95;;;8.90;99.90;;;;;;5117414;27;20184;-76
2021/12/28 03:19:41;;;;;;;50.25;11.50;;;8.90;99.90;;;;;;5120987;28;20185;-75
2021/12/28 03:22:06;;;;;;;53.35;11.73;;;8.90;99.90;;;;;;5123725;28;20187;-78
2021/12/28 03:24:32;;;;;;;59.33;12.45;;;8.90;99.90;;;;;;5120156;28;20196;-76
2021/12/28 03:26:58;;;;;;;55.85;13.18;;;8.90;99.90;;;;;;5121030;27;20544;-76
2021/12/28 03:29:23;;;;;;;47.80;11.73;;;8.90;99.90;;;;;;5117467;28;20659;-79
2021/12/28 03:31:49;;;;;;;41.88;11.00;;;8.90;99.90;;;;;;5113537;28;20237;-77
2021/12/28 03:34:15;;;;;;;48.35;11.02;;;8.90;99.90;;;;;;5114424;28;20256;-77
2021/12/28 03:36:41;;;;;;;51.30;11.00;;;8.90;99.90;;;;;;5119986;27;20180;-77
2021/12/28 03:39:07;;;;;;;57.17;11.82;;;8.90;99.90;;;;;;5129772;27;20209;-79
2021/12/28 03:41:33;;;;;;;52.00;11.20;;;8.80;99.90;;;;;;5115359;27;20250;-75
2021/12/28 03:44:00;;;;;;;45.05;10.63;;;8.90;99.90;;;;;;5120768;27;20199;-77
2021/12/28 03:46:26;;;;;;;41.03;9.48;;;8.90;99.90;;;;;;5112347;27;20280;-76
2021/12/28 03:48:52;;;;;;;58.35;10.05;;;8.90;99.90;;;;;;5113872;27;20241;-75
2021/12/28 03:51:18;;;;;;;47.72;10.25;;;8.90;99.90;;;;;;5114917;27;20216;-75
2021/12/28 03:53:46;;;;;;;53.72;10.02;;;8.90;99.90;;;;;;5116076;27;20181;-75
2021/12/28 03:56:12;;;;;;;42.75;9.05;;;8.90;99.90;;;;;;5110926;28;20200;-76
2021/12/28 03:58:39;;;;;;;53.78;9.93;;;8.90;99.90;;;;;;5106147;27;20535;-77
2021/12/28 04:01:09;;;;;;;54.85;10.00;;;8.90;99.90;;;;;;5119774;27;20643;-75
2021/12/28 04:03:34;;;;;;;49.05;9.27;;;8.90;99.90;;;;;;5116612;27;20668;-79
2021/12/28 04:06:07;;;;;;;36.58;8.40;;;8.90;99.90;;;;;;5124534;27;20189;-77
2021/12/28 04:08:33;;;;;;;40.35;9.18;;;8.90;99.90;;;;;;5116592;27;20283;-77
2021/12/28 04:13:44;;;;;;;41.80;8.80;;;8.90;99.90;;;;;;5113518;27;20185;-77
2021/12/28 04:16:11;;;;;;;46.13;9.05;;;8.90;99.90;;;;;;5099490;28;20193;-75
2021/12/28 04:18:36;;;;;;;57.75;9.35;;;8.90;99.90;;;;;;5095965;28;20595;-76
2021/12/28 04:21:02;;;;;;;48.05;9.02;;;8.90;99.90;;;;;;5107298;28;20280;-77
2021/12/28 04:23:28;;;;;;;46.35;8.65;;;9.00;99.90;;;;;;5121433;27;20189;-75
2021/12/28 04:25:54;;;;;;;51.28;9.68;;;9.00;99.90;;;;;;5113888;27;20185;-77
2021/12/28 04:28:19;;;;;;;43.70;10.00;;;9.00;99.90;;;;;;5111764;27;20201;-76
2021/12/28 04:30:45;;;;;;;38.67;9.93;;;9.00;99.90;;;;;;5116232;27;20201;-75
2021/12/28 04:33:11;;;;;;;47.85;9.18;;;9.00;99.90;;;;;;5111970;27;20193;-75
2021/12/28 04:35:36;;;;;;;53.13;9.40;;;9.00;99.90;;;;;;5120392;27;20177;-76
2021/12/28 04:38:02;;;;;;;42.67;9.30;;;9.00;99.90;;;;;;5107640;27;20225;-77
2021/12/28 04:40:29;;;;;;;45.83;9.73;;;9.00;99.90;;;;;;5112333;28;20186;-76
2021/12/28 04:42:55;;;;;;;35.92;9.27;;;9.00;99.90;;;;;;5109222;28;20680;-77
2021/12/28 04:45:20;;;;;;;48.50;9.90;;;9.00;99.90;;;;;;5097211;27;20653;-76
2021/12/28 04:47:46;;;;;;;48.28;9.73;;;9.00;99.90;;;;;;5121487;27;20292;-79
2021/12/28 04:50:12;;;;;;;36.15;9.00;;;9.00;99.90;;;;;;5119494;27;20233;-77
2021/12/28 04:52:39;;;;;;;44.03;10.23;;;9.00;99.90;;;;;;5122686;27;20188;-77
2021/12/28 04:55:09;;;;;;;53.38;9.85;;;9.00;99.90;;;;;;5098125;27;20181;-76
2021/12/28 04:57:35;;;;;;;54.90;11.18;;;9.00;99.90;;;;;;5115812;27;20286;-77
2021/12/28 05:00:02;;;;;;;44.20;10.65;;;9.00;99.90;;;;;;5114477;27;20561;-76
2021/12/28 05:02:28;;;;;;;59.35;10.95;;;9.00;99.90;;;;;;5119435;27;20185;-77
2021/12/28 05:04:54;;;;;;;39.50;10.75;;;9.00;99.90;;;;;;5120690;27;20191;-77
2021/12/28 05:07:19;;;;;;;47.47;10.35;;;9.00;99.90;;;;;;5109873;27;20257;-74
2021/12/28 05:09:45;;;;;;;42.25;9.73;;;9.00;99.90;;;;;;5117416;27;20213;-76
2021/12/28 05:12:11;;;;;;;47.85;10.10;;;9.10;99.90;;;;;;5110994;27;20287;-76
2021/12/28 05:14:40;;;;;;;48.97;9.43;;;9.10;99.90;;;;;;5118410;27;20286;-74
2021/12/28 05:17:06;;;;;;;43.08;9.50;;;9.10;99.90;;;;;;5115292;27;20186;-77
2021/12/28 05:19:31;;;;;;;40.90;9.38;;;9.00;99.90;;;;;;5113737;27;20671;-75
2021/12/28 05:21:57;;;;;;;49.90;9.55;;;9.10;99.90;;;;;;5109878;28;20660;-76
2021/12/28 05:24:22;;;;;;;40.28;8.77;;;9.10;99.90;;;;;;5118059;27;20188;-76
2021/12/28 05:26:49;;;;;;;37.97;7.88;;;9.10;99.90;;;;;;5111914;27;20637;-77
2021/12/28 05:29:15;;;;;;;41.63;7.75;;;9.10;99.90;;;;;;5120488;27;20189;-76
2021/12/28 05:31:41;;;;;;;48.05;8.77;;;9.10;99.90;;;;;;5114737;27;20753;-76
2021/12/28 05:34:08;;;;;;;49.53;8.73;;;9.10;99.90;;;;;;5122116;27;20184;-75
2021/12/28 05:36:35;;;;;;;46.08;8.05;;;9.10;99.90;;;;;;5093133;28;20189;-77
2021/12/28 05:39:01;;;;;;;56.58;8.30;;;9.10;99.90;;;;;;5126688;27;20232;-76
2021/12/28 05:41:26;;;;;;;33.55;7.32;;;9.10;99.90;;;;;;5115890;27;20196;-78
2021/12/28 05:43:52;;;;;;;44.45;8.02;;;9.10;99.90;;;;;;5124561;27;20270;-77
2021/12/28 05:46:18;;;;;;;37.40;7.47;;;9.10;99.90;;;;;;5116697;27;20645;-76
2021/12/28 05:48:44;;;;;;;43.67;8.65;;;9.10;99.90;;;;;;5146737;27;20231;-77
2021/12/28 05:51:09;;;;;;;41.33;8.27;;;9.10;99.90;;;;;;5100170;28;20231;-77
2021/12/28 05:53:35;;;;;;;42.08;8.57;;;9.10;99.90;;;;;;5117896;27;20249;-77
2021/12/28 05:56:00;;;;;;;41.63;8.55;;;9.10;99.90;;;;;;5119775;27;20763;-77
2021/12/28 05:58:26;;;;;;;37.72;8.70;;;9.10;99.90;;;;;;5122364;27;20177;-76
2021/12/28 06:00:52;;;;;;;36.03;8.90;;;9.20;99.90;;;;;;5110847;27;20189;-76
2021/12/28 06:03:17;;;;;;;43.45;9.48;;;9.20;99.90;;;;;;5119630;27;20180;-76
2021/12/28 06:05:43;;;;;;;37.20;8.88;;;9.10;99.90;;;;;;5108478;28;20185;-77
2021/12/28 06:08:08;;;;;;;34.70;9.15;;;9.10;99.90;;;;;;5110897;27;20199;-75
2021/12/28 06:10:34;;;;;;;41.85;10.05;;;9.10;99.90;;;;;;5110655;27;20228;-75
2021/12/28 06:13:00;;;;;;;31.92;10.07;;;9.20;99.90;;;;;;5113554;27;20181;-76
2021/12/28 06:15:25;;;;;;;39.38;10.10;;;9.20;99.90;;;;;;5111181;27;20649;-75
2021/12/28 06:17:51;;;;;;;40.03;10.32;;;9.20;99.90;;;;;;5111642;27;20188;-75
2021/12/28 06:20:17;;;;;;;33.65;9.90;;;9.20;99.90;;;;;;5112268;27;20267;-74
2021/12/28 06:22:42;;;;;;;30.52;10.15;;;9.20;99.90;;;;;;5107564;27;20228;-74
2021/12/28 06:25:08;;;;;;;34.15;10.02;;;9.20;99.90;;;;;;5117431;27;20261;-74
2021/12/28 06:27:34;;;;;;;36.35;9.48;;;9.20;99.90;;;;;;5097889;28;20225;-74
2021/12/28 06:29:59;;;;;;;36.63;10.50;;;9.20;99.90;;;;;;5113372;27;22309;-74
2021/12/28 06:32:25;;;;;;;39.53;10.90;;;9.20;99.90;;;;;;5112168;27;20208;-74
2021/12/28 06:34:51;;;;;;;30.17;9.82;;;9.20;99.90;;;;;;5116758;27;20178;-74
2021/12/28 06:37:16;;;;;;;32.03;9.80;;;9.20;99.90;;;;;;5106942;28;20181;-73
2021/12/28 06:39:42;;;;;;;37.88;10.25;;;9.20;99.90;;;;;;5119480;27;20216;-74
2021/12/28 06:42:08;;;;;;;30.17;9.75;;;9.20;99.90;;;;;;5119248;27;20184;-73
2021/12/28 06:44:34;;;;;;;35.60;10.25;;;9.20;99.90;;;;;;5112745;27;20185;-73
2021/12/28 06:46:59;;;;;;;29.40;10.32;;;9.20;99.90;;;;;;5104341;28;20192;-74
2021/12/28 06:49:25;;;;;;;33.25;10.30;;;9.20;99.90;;;;;;5120529;27;20192;-75
2021/12/28 06:51:51;;;;;;;29.77;10.80;;;9.30;99.90;;;;;;5109702;27;20716;-74
2021/12/28 06:54:16;;;;;;;29.17;10.32;;;9.30;99.90;;;;;;5110456;27;20579;-75
2021/12/28 06:56:42;;;;;;;26.38;10.40;;;9.30;99.90;;;;;;5110748;27;20226;-75
2021/12/28 06:59:08;;;;;;;33.63;11.75;;;9.30;99.90;;;;;;5107478;28;20208;-73
2021/12/28 07:01:33;;;;;;;31.00;11.75;;;9.30;99.90;;;;;;5107704;27;22995;-74
2021/12/28 07:03:59;;;;;;;32.55;11.68;;;9.30;99.90;;;;;;5107104;28;20731;-74
2021/12/28 07:06:26;;;;;;;29.58;11.23;;;9.30;99.90;;;;;;5105407;28;20641;-74
2021/12/28 07:08:52;;;;;;;30.85;12.05;;;9.30;99.90;;;;;;5111142;28;20646;-73
2021/12/28 07:11:18;;;;;;;33.33;11.50;;;9.30;99.90;;;;;;5107536;28;20220;-73
2021/12/28 07:13:44;;;;;;;28.30;12.13;;;9.30;99.90;;;;;;5146105;27;20177;-73
2021/12/28 07:16:09;;;;;;;29.35;12.10;;;9.40;99.90;;;;;;5107922;28;20182;-73
2021/12/28 07:18:35;;;;;;;33.28;13.05;;;9.30;99.90;;;;;;5122944;27;20173;-73
2021/12/28 07:21:02;;;;;;;26.73;11.38;;;9.40;99.90;;;;;;5108007;27;20199;-74
2021/12/28 07:23:29;;;;;;;23.13;11.95;;;9.40;99.90;;;;;;5110330;28;20181;-74
2021/12/28 07:25:55;;;;;;;32.15;12.43;;;9.40;99.90;;;;;;5108419;28;20196;-74
2021/12/28 07:28:25;;;;;;;28.48;12.10;;;9.40;99.90;;;;;;5122736;27;20193;-74
2021/12/28 07:30:52;;;;;;;25.60;12.88;;;9.40;99.90;;;;;;5107459;28;20598;-74
2021/12/28 07:33:18;;;;;;;33.10;12.85;;;9.40;99.90;;;;;;5108722;28;20174;-74
2021/12/28 07:35:44;;;;;;;36.58;14.82;;;9.40;99.90;;;;;;5109170;27;20634;-75
2021/12/28 07:38:09;;;;;;;37.50;16.48;;;9.40;99.90;;;;;;5111503;28;20213;-74
2021/12/28 07:40:35;;;;;;;34.28;16.40;;;9.40;99.90;;;;;;5110112;28;20173;-74
2021/12/28 07:43:01;;;;;;;37.38;16.67;;;9.40;99.90;;;;;;5143355;27;20189;-75
2021/12/28 07:45:27;;;;;;;42.05;17.73;;;9.40;99.90;;;;;;5108399;28;20185;-74
2021/12/28 07:47:53;;;;;;;37.97;18.52;;;9.40;99.90;;;;;;5117421;27;20242;-74
2021/12/28 07:50:19;;;;;;;42.67;18.83;;;9.40;99.90;;;;;;5123681;27;20675;-75
2021/12/28 07:52:46;;;;;;;46.42;19.80;;;9.40;99.90;;;;;;5117983;27;20184;-75
2021/12/28 07:55:14;;;;;;;43.55;19.58;;;9.40;99.90;;;;;;5120003;27;20185;-74
2021/12/28 07:57:40;;;;;;;42.85;18.60;;;9.40;99.90;;;;;;5118692;27;20625;-74
2021/12/28 08:00:09;;;;;;;47.45;19.35;;;9.40;99.90;;;;;;5117355;27;20206;-74
2021/12/28 08:02:37;;;;;;;40.70;18.73;;;9.40;99.90;;;;;;5119093;27;20180;-74
2021/12/28 08:05:03;;;;;;;47.90;19.38;;;9.50;99.90;;;;;;5114499;27;20192;-75
2021/12/28 08:07:29;;;;;;;39.20;18.77;;;9.40;99.90;;;;;;5112853;27;20630;-73
2021/12/28 08:09:55;;;;;;;36.72;18.65;;;9.50;99.90;;;;;;5119600;27;20184;-74
2021/12/28 08:12:20;;;;;;;40.38;18.85;;;9.50;99.90;;;;;;5099973;27;20209;-74
2021/12/28 08:14:46;;;;;;;39.33;18.33;;;9.50;99.90;;;;;;5120827;27;20191;-75
2021/12/28 08:17:11;;;;;;;44.05;19.02;;;9.50;99.90;;;;;;5118870;27;20701;-76
2021/12/28 08:19:38;;;;;;;40.30;18.65;;;9.50;99.90;;;;;;5117927;27;20185;-75
2021/12/28 08:22:06;;;;;;;40.25;18.50;;;9.50;99.90;;;;;;5108487;27;20197;-77
2021/12/28 08:24:34;;;;;;;39.53;19.20;;;9.50;99.90;;;;;;5109547;27;20201;-75
2021/12/28 08:27:00;;;;;;;37.00;19.65;;;9.50;99.90;;;;;;5107984;28;20276;-75
2021/12/28 08:29:25;;;;;;;43.38;19.42;;;9.50;99.90;;;;;;5111941;27;20189;-75
2021/12/28 08:31:51;;;;;;;40.65;18.88;;;9.50;99.90;;;;;;5113370;27;20251;-75
2021/12/28 08:34:17;;;;;;;36.45;18.98;;;9.60;99.90;;;;;;5113249;27;20185;-75
2021/12/28 08:36:42;;;;;;;35.15;18.33;;;9.60;99.90;;;;;;5106454;28;20185;-76
2021/12/28 08:39:08;;;;;;;39.78;18.27;;;9.60;99.90;;;;;;5105976;28;20212;-74
2021/12/28 08:41:34;;;;;;;38.17;18.00;;;9.60;99.90;;;;;;5107679;27;20238;-76
2021/12/28 08:43:59;;;;;;;39.28;18.75;;;9.60;99.90;;;;;;5108122;28;20205;-75
2021/12/28 08:46:25;;;;;;;42.30;19.55;;;9.60;99.90;;;;;;5107820;27;20282;-74
2021/12/28 08:48:51;;;;;;;36.08;20.25;;;9.60;99.90;;;;;;5109745;28;20194;-75
2021/12/28 08:51:17;;;;;;;41.13;21.85;;;9.60;99.90;;;;;;5088471;28;20201;-74
2021/12/28 08:53:43;;;;;;;44.35;21.27;;;9.60;99.90;;;;;;5109906;28;20185;-75
2021/12/28 08:56:08;;;;;;;42.83;22.13;;;9.60;99.90;;;;;;5106268;28;20926;-76
2021/12/28 08:58:34;;;;;;;43.35;21.33;;;9.60;99.90;;;;;;5108792;27;20195;-74
2021/12/28 09:01:00;;;;;;;39.30;20.90;;;9.70;99.90;;;;;;5108166;28;20554;-74
2021/12/28 09:03:27;;;;;;;41.17;21.90;;;9.60;99.90;;;;;;5109763;28;20269;-74
2021/12/28 09:05:53;;;;;;;39.50;20.20;;;9.70;99.90;;;;;;5107965;28;20205;-73
2021/12/28 09:08:19;;;;;;;39.88;19.75;;;9.70;99.90;;;;;;5109761;27;20212;-72
2021/12/28 09:10:46;;;;;;;36.35;18.77;;;9.70;99.90;;;;;;5107632;27;20612;-71
2021/12/28 09:13:14;;;;;;;36.20;19.45;;;9.70;99.90;;;;;;5108777;28;20173;-73
2021/12/28 09:15:40;;;;;;;34.40;18.85;;;9.70;99.90;;;;;;5112920;27;20177;-75
2021/12/28 09:18:06;;;;;;;33.10;19.00;;;9.70;99.90;;;;;;5107797;28;20793;-72
2021/12/28 09:20:32;;;;;;;34.50;18.73;;;9.70;99.90;;;;;;5109327;28;20189;-71
2021/12/28 09:22:58;;;;;;;35.78;18.95;;;9.70;99.90;;;;;;5105503;27;20193;-73
2021/12/28 09:25:24;;;;;;;36.50;18.67;;;9.70;99.90;;;;;;5109812;27;20202;-72
2021/12/28 09:27:50;;;;;;;34.70;18.55;;;9.70;99.90;;;;;;5107918;27;20193;-72
2021/12/28 09:30:17;;;;;;;34.90;18.45;;;9.70;99.90;;;;;;5109182;28;20741;-72
2021/12/28 09:32:42;;;;;;;37.03;19.83;;;9.70;99.90;;;;;;5102709;28;20268;-74
2021/12/28 09:35:09;;;;;;;34.17;18.92;;;9.80;99.90;;;;;;5109250;27;20289;-73
2021/12/28 09:37:35;;;;;;;34.50;19.55;;;9.80;99.90;;;;;;5107188;28;20608;-73
2021/12/28 09:40:03;;;;;;;37.72;20.27;;;9.80;99.90;;;;;;5108308;27;20244;-74
2021/12/28 09:42:28;;;;;;;34.80;19.10;;;9.80;99.90;;;;;;5094093;28;20933;-75
2021/12/28 09:44:54;;;;;;;39.25;20.60;;;9.80;99.90;;;;;;5107416;28;20185;-74
2021/12/28 09:47:20;;;;;;;42.80;25.43;;;9.90;99.90;;;;;;5101961;28;20415;-74
2021/12/28 09:49:48;;;;;;;37.23;24.30;;;10.20;99.90;;;;;;5106689;28;20415;-71
2021/12/28 09:52:14;;;;;;;40.08;22.48;;;10.60;99.90;;;;;;5106080;28;21109;-72
2021/12/28 09:54:41;;;;;;;35.75;20.80;;;10.40;99.90;;;;;;5112539;27;20646;-71
2021/12/28 09:57:08;;;;;;;36.20;21.27;;;10.30;99.90;;;;;;5093552;27;20695;-72
2021/12/28 09:59:34;;;;;;;37.42;20.90;;;10.20;99.90;;;;;;5092053;28;20185;-70
2021/12/28 10:02:06;;;;;;;34.08;21.10;;;10.20;99.90;;;;;;5107149;28;20197;-74
2021/12/28 10:04:33;;;;;;;37.78;20.92;;;10.10;99.90;;;;;;5109574;28;20196;-77
2021/12/28 10:07:20;;;;;;;41.65;22.83;;;10.10;99.90;;;;;;5107659;28;20209;-75
2021/12/28 10:09:46;;;;;;;37.38;22.08;;;10.10;99.90;;;;;;5110178;28;20189;-75
2021/12/28 10:12:12;;;;;;;38.65;22.67;;;10.00;99.90;;;;;;5108955;27;20205;-73
2021/12/28 10:14:37;;;;;;;33.78;20.55;;;10.00;99.90;;;;;;5119037;27;20668;-75
2021/12/28 10:17:05;;;;;;;36.75;21.85;;;10.00;99.90;;;;;;5110100;27;20189;-74
2021/12/28 10:19:44;;;;;;;36.20;21.63;;;10.00;99.90;;;;;;5120115;27;20185;-75
2021/12/28 10:22:39;;;;;;;34.95;20.77;;;10.00;99.90;;;;;;5105551;27;20199;-73
2021/12/28 10:25:14;;;;;;;35.08;19.40;;;10.00;99.90;;;;;;5115737;27;20197;-75
2021/12/28 10:27:46;;;;;;;34.97;20.02;;;10.10;99.90;;;;;;5106936;28;20237;-73
2021/12/28 10:30:29;;;;;;;31.33;18.92;;;10.10;99.90;;;;;;5108133;28;20204;-73
2021/12/28 10:33:03;;;;;;;32.30;17.80;;;10.10;99.90;;;;;;5110998;27;20183;-75
2021/12/28 10:35:32;;;;;;;30.67;18.17;;;10.10;99.90;;;;;;5108362;28;20185;-76
2021/12/28 10:38:05;;;;;;;29.95;17.42;;;10.10;99.90;;;;;;5107078;28;20547;-74
2021/12/28 10:40:41;;;;;;;29.48;17.23;;;10.10;99.90;;;;;;5141370;27;20197;-71
2021/12/28 10:43:24;;;;;;;35.40;17.65;;;10.10;99.90;;;;;;5107351;28;20189;-73
2021/12/28 10:46:06;;;;;;;30.85;17.40;;;10.10;99.90;;;;;;5107805;27;20293;-73
2021/12/28 10:48:34;;;;;;;28.65;17.35;;;10.10;99.90;;;;;;5111707;27;20542;-72
2021/12/28 10:51:08;;;;;;;26.50;16.27;;;10.10;99.90;;;;;;5107177;27;20574;-72
2021/12/28 10:56:52;;;;;;;20.20;14.05;;;10.20;99.90;;;;;;5105465;28;20185;-71
2021/12/28 10:59:23;;;;;;;21.52;13.35;;;10.10;99.90;;;;;;5110109;28;20189;-75
2021/12/28 11:01:50;;;;;;;25.80;14.10;;;10.10;99.90;;;;;;5106689;28;20193;-71
2021/12/28 11:04:17;;;;;;;19.35;12.48;;;10.20;99.90;;;;;;5116882;27;20189;-74
2021/12/28 11:06:49;;;;;;;17.42;11.00;;;10.20;99.90;;;;;;5106771;28;20192;-71
2021/12/28 11:09:18;;;;;;;20.23;11.43;;;10.10;99.90;;;;;;5104252;28;20201;-72
2021/12/28 11:11:44;;;;;;;16.45;10.30;;;10.10;99.90;;;;;;5106654;28;20215;-71
2021/12/28 11:14:15;;;;;;;15.52;10.43;;;10.20;99.90;;;;;;5108551;28;20189;-70
2021/12/28 11:16:47;;;;;;;12.45;9.32;;;10.10;99.90;;;;;;5106739;28;20181;-73
2021/12/28 11:19:13;;;;;;;12.40;9.57;;;10.10;99.90;;;;;;5107650;28;20185;-71
2021/12/28 11:21:50;;;;;;;11.82;8.68;;;10.20;99.90;;;;;;5105666;28;20188;-70
2021/12/28 11:24:17;;;;;;;14.70;8.43;;;10.10;99.90;;;;;;5108747;28;20181;-73
2021/12/28 11:26:46;;;;;;;12.70;8.25;;;10.20;99.90;;;;;;5106918;28;20188;-71
2021/12/28 11:29:13;;;;;;;14.13;7.75;;;10.20;99.90;;;;;;5106481;28;20249;-73
2021/12/28 11:31:50;;;;;;;13.68;8.02;;;10.20;99.90;;;;;;5115493;28;20223;-72
2021/12/28 11:34:26;;;;;;;15.48;8.45;;;10.20;99.90;;;;;;5107336;28;20213;-72
2021/12/28 11:37:04;;;;;;;15.00;9.45;;;10.10;99.90;;;;;;5105030;28;20744;-73
2021/12/28 11:39:51;;;;;;;15.35;8.55;;;10.10;99.90;;;;;;5104839;28;20726;-72
2021/12/28 11:42:20;;;;;;;15.02;8.75;;;10.10;99.90;;;;;;5104419;28;20177;-72
2021/12/28 11:44:46;;;;;;;15.75;7.60;;;10.10;99.90;;;;;;5108185;28;20197;-72
2021/12/28 11:47:14;;;;;;;14.88;6.70;;;10.10;99.90;;;;;;5106823;28;20601;-74
2021/12/28 11:49:41;;;;;;;15.30;6.65;;;10.10;99.90;;;;;;5108286;28;20185;-72
2021/12/28 11:52:11;;;;;;;11.70;6.63;;;10.10;99.90;;;;;;5103617;28;20201;-72
2021/12/28 11:54:44;;;;;;;43.75;5.18;;;10.10;99.90;;;;;;5107336;28;20185;-72
2021/12/28 11:57:13;;;;;;;15.18;4.40;;;10.10;99.90;;;;;;5108301;28;20193;-72
2021/12/28 11:59:51;;;;;;;27.02;2.60;;;10.10;99.90;;;;;;5110460;28;20184;-73
2021/12/28 12:02:17;;;;;;;14.95;2.55;;;10.10;99.90;;;;;;5111379;27;20219;-71
2021/12/28 12:04:46;;;;;;;29.30;2.72;;;10.00;99.90;;;;;;5118680;27;20217;-71
2021/12/28 12:07:21;;;;;;;23.80;2.80;;;9.80;99.90;;;;;;5110409;27;20542;-72
2021/12/28 12:09:50;;;;;;;23.35;2.95;;;9.70;99.90;;;;;;5111977;28;20695;-73
2021/12/28 12:12:18;;;;;;;34.05;3.08;;;9.60;99.90;;;;;;5110025;27;20677;-74
2021/12/28 12:14:54;;;;;;;32.05;3.60;;;9.50;99.90;;;;;;5112100;28;20547;-72
2021/12/28 12:17:29;;;;;;;;;;;9.40;99.90;;;;;;5108834;27;20097;-71
2021/12/28 12:19:55;;;;;;;;;;;9.40;99.90;;;;;;5111900;28;19907;-74
2021/12/28 12:22:30;;;;;;;;;;;9.30;99.90;;;;;;5110704;27;19911;-71
2021/12/28 12:24:56;;;;;;;;;;;9.30;99.90;;;;;;5110440;27;19908;-73
2021/12/28 12:27:41;;;;;;;;;;;9.20;99.90;;;;;;5109860;27;19950;-73
2021/12/28 12:30:29;;;;;;;;;;;9.20;99.90;;;;;;5109531;28;20060;-73
2021/12/28 12:33:05;;;;;;;;;;;9.20;99.90;;;;;;5140629;27;19927;-72
2021/12/28 12:35:30;;;;;;;;;;;9.20;99.90;;;;;;5113241;27;19907;-70
2021/12/28 12:37:56;;;;;;;;;;;9.20;99.90;;;;;;5109441;27;20379;-71
2021/12/28 12:40:22;;;;;;;;;;;9.30;99.90;;;;;;5123123;27;19920;-72
2021/12/28 12:43:06;;;;;;;;;;;9.30;99.90;;;;;;5110801;27;19908;-69
2021/12/28 12:45:50;;;;;;;;;;;9.30;99.90;;;;;;5110847;27;19918;-71
2021/12/28 12:48:40;;;;;;;;;;;9.30;99.90;;;;;;5110526;28;19958;-71